sensor_id;sensor_type;location;lat;lon;timestamp;P1;durP1;ratioP1;P2;durP2;ratioP2
11016;SDS011;54687;50.800;6.772;2024-03-23T00:54:25;23.77;;;15.07;;
11016;SDS011;54687;50.800;6.772;2024-03-23T00:56:50;32.25;;;16.38;;
11016;SDS011;54687;50.800;6.772;2024-03-23T00:59:17;30.85;;;16.40;;
11016;SDS011;54687;50.800;6.772;2024-03-23T01:01:44;24.02;;;15.95;;
11016;SDS011;54687;50.800;6.772;2024-03-23T01:04:13;27.67;;;15.48;;
11016;SDS011;54687;50.800;6.772;2024-03-23T01:06:39;26.73;;;15.73;;
11016;SDS011;54687;50.800;6.772;2024-03-23T01:09:05;28.00;;;16.10;;
11016;SDS011;54687;50.800;6.772;2024-03-23T01:11:32;30.38;;;15.30;;
11016;SDS011;54687;50.800;6.772;2024-03-23T01:13:59;25.25;;;15.13;;
11016;SDS011;54687;50.800;6.772;2024-03-23T01:16:25;29.05;;;15.27;;
11016;SDS011;54687;50.800;6.772;2024-03-23T01:18:54;32.72;;;15.65;;
11016;SDS011;54687;50.800;6.772;2024-03-23T01:21:21;30.38;;;15.65;;
11016;SDS011;54687;50.800;6.772;2024-03-23T01:23:49;26.90;;;15.02;;
11016;SDS011;54687;50.800;6.772;2024-03-23T01:26:16;28.30;;;14.30;;
11016;SDS011;54687;50.800;6.772;2024-03-23T01:28:45;25.83;;;14.07;;
11016;SDS011;54687;50.800;6.772;2024-03-23T01:31:11;29.20;;;14.25;;
11016;SDS011;54687;50.800;6.772;2024-03-23T01:33:38;26.52;;;13.20;;
11016;SDS011;54687;50.800;6.772;2024-03-23T01:36:05;21.10;;;11.25;;
11016;SDS011;54687;50.800;6.772;2024-03-23T01:38:31;22.15;;;11.15;;
11016;SDS011;54687;50.800;6.772;2024-03-23T01:40:58;20.42;;;10.77;;
11016;SDS011;54687;50.800;6.772;2024-03-23T01:43:28;19.67;;;10.13;;
11016;SDS011;54687;50.800;6.772;2024-03-23T01:45:55;15.68;;;9.38;;
11016;SDS011;54687;50.800;6.772;2024-03-23T01:48:23;13.82;;;8.52;;
11016;SDS011;54687;50.800;6.772;2024-03-23T01:50:49;12.20;;;6.80;;
11016;SDS011;54687;50.800;6.772;2024-03-23T01:53:18;9.15;;;5.07;;
11016;SDS011;54687;50.800;6.772;2024-03-23T01:55:48;7.50;;;4.45;;
11016;SDS011;54687;50.800;6.772;2024-03-23T01:58:18;11.50;;;5.13;;
11016;SDS011;54687;50.800;6.772;2024-03-23T02:00:44;9.68;;;5.15;;
11016;SDS011;54687;50.800;6.772;2024-03-23T02:03:25;6.88;;;4.25;;
11016;SDS011;54687;50.800;6.772;2024-03-23T02:05:52;10.68;;;6.43;;
11016;SDS011;54687;50.800;6.772;2024-03-23T02:08:20;12.93;;;6.45;;
11016;SDS011;54687;50.800;6.772;2024-03-23T02:10:48;10.98;;;5.80;;
11016;SDS011;54687;50.800;6.772;2024-03-23T02:13:16;10.55;;;6.50;;
11016;SDS011;54687;50.800;6.772;2024-03-23T02:15:43;11.80;;;5.03;;
11016;SDS011;54687;50.800;6.772;2024-03-23T02:18:11;10.95;;;4.68;;
11016;SDS011;54687;50.800;6.772;2024-03-23T02:20:38;10.65;;;5.10;;
11016;SDS011;54687;50.800;6.772;2024-03-23T02:23:10;9.70;;;4.75;;
11016;SDS011;54687;50.800;6.772;2024-03-23T02:25:38;11.07;;;4.60;;
11016;SDS011;54687;50.800;6.772;2024-03-23T02:28:05;8.57;;;4.90;;
11016;SDS011;54687;50.800;6.772;2024-03-23T02:30:30;10.98;;;4.65;;
11016;SDS011;54687;50.800;6.772;2024-03-23T02:32:57;10.65;;;4.93;;
11016;SDS011;54687;50.800;6.772;2024-03-23T02:35:23;10.40;;;4.57;;
11016;SDS011;54687;50.800;6.772;2024-03-23T02:37:49;8.70;;;3.78;;
11016;SDS011;54687;50.800;6.772;2024-03-23T02:40:16;9.38;;;4.13;;
11016;SDS011;54687;50.800;6.772;2024-03-23T02:42:45;10.40;;;4.20;;
11016;SDS011;54687;50.800;6.772;2024-03-23T02:45:10;10.30;;;4.07;;
11016;SDS011;54687;50.800;6.772;2024-03-23T02:47:37;11.02;;;3.97;;
11016;SDS011;54687;50.800;6.772;2024-03-23T02:50:03;10.60;;;3.88;;
11016;SDS011;54687;50.800;6.772;2024-03-23T02:52:30;9.40;;;3.95;;
11016;SDS011;54687;50.800;6.772;2024-03-23T02:54:56;12.00;;;4.53;;
11016;SDS011;54687;50.800;6.772;2024-03-23T02:57:24;10.73;;;4.15;;
11016;SDS011;54687;50.800;6.772;2024-03-23T02:59:50;13.68;;;4.13;;
11016;SDS011;54687;50.800;6.772;2024-03-23T03:02:17;9.02;;;3.83;;
11016;SDS011;54687;50.800;6.772;2024-03-23T03:04:42;13.27;;;3.90;;
11016;SDS011;54687;50.800;6.772;2024-03-23T03:07:09;9.57;;;3.83;;
11016;SDS011;54687;50.800;6.772;2024-03-23T03:09:35;9.38;;;4.00;;
11016;SDS011;54687;50.800;6.772;2024-03-23T03:12:06;11.98;;;4.10;;
11016;SDS011;54687;50.800;6.772;2024-03-23T03:14:34;11.60;;;4.05;;
11016;SDS011;54687;50.800;6.772;2024-03-23T03:17:01;11.95;;;4.20;;
11016;SDS011;54687;50.800;6.772;2024-03-23T03:19:26;14.77;;;4.70;;
11016;SDS011;54687;50.800;6.772;2024-03-23T03:21:53;11.60;;;4.22;;
11016;SDS011;54687;50.800;6.772;2024-03-23T03:24:19;9.93;;;4.18;;
11016;SDS011;54687;50.800;6.772;2024-03-23T03:26:50;15.63;;;4.75;;
11016;SDS011;54687;50.800;6.772;2024-03-23T03:29:16;12.52;;;4.18;;
11016;SDS011;54687;50.800;6.772;2024-03-23T03:31:44;12.73;;;4.40;;
11016;SDS011;54687;50.800;6.772;2024-03-23T03:34:10;15.27;;;4.43;;
11016;SDS011;54687;50.800;6.772;2024-03-23T03:36:36;11.18;;;4.13;;
11016;SDS011;54687;50.800;6.772;2024-03-23T03:39:02;13.07;;;4.22;;
11016;SDS011;54687;50.800;6.772;2024-03-23T03:41:31;11.88;;;4.72;;
11016;SDS011;54687;50.800;6.772;2024-03-23T03:43:56;14.60;;;4.57;;
11016;SDS011;54687;50.800;6.772;2024-03-23T03:46:26;9.95;;;4.30;;
11016;SDS011;54687;50.800;6.772;2024-03-23T03:48:55;13.20;;;4.07;;
11016;SDS011;54687;50.800;6.772;2024-03-23T03:51:21;9.73;;;3.65;;
11016;SDS011;54687;50.800;6.772;2024-03-23T03:53:47;13.30;;;4.13;;
11016;SDS011;54687;50.800;6.772;2024-03-23T03:56:14;10.05;;;2.95;;
11016;SDS011;54687;50.800;6.772;2024-03-23T03:58:40;13.60;;;3.75;;
11016;SDS011;54687;50.800;6.772;2024-03-23T04:01:07;11.23;;;3.63;;
11016;SDS011;54687;50.800;6.772;2024-03-23T04:03:33;11.02;;;3.75;;
11016;SDS011;54687;50.800;6.772;2024-03-23T04:06:01;12.40;;;3.85;;
11016;SDS011;54687;50.800;6.772;2024-03-23T04:08:28;8.70;;;3.35;;
11016;SDS011;54687;50.800;6.772;2024-03-23T04:10:55;9.00;;;3.65;;
11016;SDS011;54687;50.800;6.772;2024-03-23T04:13:20;9.40;;;3.35;;
11016;SDS011;54687;50.800;6.772;2024-03-23T04:15:47;7.78;;;3.25;;
11016;SDS011;54687;50.800;6.772;2024-03-23T04:18:12;11.73;;;3.40;;
11016;SDS011;54687;50.800;6.772;2024-03-23T04:20:39;11.10;;;3.15;;
11016;SDS011;54687;50.800;6.772;2024-03-23T04:23:06;10.27;;;3.85;;
11016;SDS011;54687;50.800;6.772;2024-03-23T04:25:33;9.93;;;3.40;;
11016;SDS011;54687;50.800;6.772;2024-03-23T04:27:59;14.43;;;3.60;;
11016;SDS011;54687;50.800;6.772;2024-03-23T04:30:26;14.60;;;3.80;;
11016;SDS011;54687;50.800;6.772;2024-03-23T04:32:54;9.60;;;3.42;;
11016;SDS011;54687;50.800;6.772;2024-03-23T04:35:22;10.57;;;3.33;;
11016;SDS011;54687;50.800;6.772;2024-03-23T04:37:50;13.10;;;3.45;;
11016;SDS011;54687;50.800;6.772;2024-03-23T04:40:19;10.35;;;3.20;;
11016;SDS011;54687;50.800;6.772;2024-03-23T04:42:45;9.90;;;4.13;;
11016;SDS011;54687;50.800;6.772;2024-03-23T04:45:12;11.05;;;3.38;;
11016;SDS011;54687;50.800;6.772;2024-03-23T04:47:39;11.32;;;3.80;;
11016;SDS011;54687;50.800;6.772;2024-03-23T04:50:06;12.23;;;3.88;;
11016;SDS011;54687;50.800;6.772;2024-03-23T04:52:32;11.70;;;3.83;;
11016;SDS011;54687;50.800;6.772;2024-03-23T04:54:59;12.18;;;3.65;;
11016;SDS011;54687;50.800;6.772;2024-03-23T04:57:26;10.75;;;3.67;;
11016;SDS011;54687;50.800;6.772;2024-03-23T04:59:53;9.10;;;3.80;;
11016;SDS011;54687;50.800;6.772;2024-03-23T05:02:18;5.55;;;3.40;;
11016;SDS011;54687;50.800;6.772;2024-03-23T05:04:45;12.70;;;4.55;;
11016;SDS011;54687;50.800;6.772;2024-03-23T05:07:11;5.47;;;2.88;;
11016;SDS011;54687;50.800;6.772;2024-03-23T05:09:39;11.85;;;3.70;;
11016;SDS011;54687;50.800;6.772;2024-03-23T05:12:05;13.70;;;4.00;;
11016;SDS011;54687;50.800;6.772;2024-03-23T05:14:34;9.95;;;3.45;;
11016;SDS011;54687;50.800;6.772;2024-03-23T05:17:00;13.13;;;4.97;;
11016;SDS011;54687;50.800;6.772;2024-03-23T05:19:28;11.50;;;3.78;;
11016;SDS011;54687;50.800;6.772;2024-03-23T05:21:54;15.95;;;4.18;;
11016;SDS011;54687;50.800;6.772;2024-03-23T05:24:20;11.80;;;4.18;;
11016;SDS011;54687;50.800;6.772;2024-03-23T05:26:46;15.25;;;4.63;;
11016;SDS011;54687;50.800;6.772;2024-03-23T05:29:12;11.55;;;4.40;;
11016;SDS011;54687;50.800;6.772;2024-03-23T05:31:40;13.13;;;4.85;;
11016;SDS011;54687;50.800;6.772;2024-03-23T05:34:08;10.18;;;4.22;;
11016;SDS011;54687;50.800;6.772;2024-03-23T05:36:34;10.57;;;4.22;;
11016;SDS011;54687;50.800;6.772;2024-03-23T05:39:01;11.57;;;4.22;;
11016;SDS011;54687;50.800;6.772;2024-03-23T05:41:27;11.95;;;3.95;;
11016;SDS011;54687;50.800;6.772;2024-03-23T05:43:53;10.40;;;4.45;;
11016;SDS011;54687;50.800;6.772;2024-03-23T05:46:19;9.63;;;3.70;;
11016;SDS011;54687;50.800;6.772;2024-03-23T05:48:47;13.98;;;4.28;;
11016;SDS011;54687;50.800;6.772;2024-03-23T05:51:13;12.25;;;3.30;;
11016;SDS011;54687;50.800;6.772;2024-03-23T05:53:40;10.80;;;4.07;;
11016;SDS011;54687;50.800;6.772;2024-03-23T05:56:06;10.70;;;4.25;;
11016;SDS011;54687;50.800;6.772;2024-03-23T05:58:32;11.05;;;3.85;;
11016;SDS011;54687;50.800;6.772;2024-03-23T06:00:58;11.27;;;4.20;;
11016;SDS011;54687;50.800;6.772;2024-03-23T06:03:26;15.52;;;4.20;;
11016;SDS011;54687;50.800;6.772;2024-03-23T06:05:55;10.73;;;3.80;;
11016;SDS011;54687;50.800;6.772;2024-03-23T06:08:22;11.15;;;4.07;;
11016;SDS011;54687;50.800;6.772;2024-03-23T06:10:49;10.27;;;3.70;;
11016;SDS011;54687;50.800;6.772;2024-03-23T06:13:16;11.98;;;4.28;;
11016;SDS011;54687;50.800;6.772;2024-03-23T06:15:44;8.40;;;4.00;;
11016;SDS011;54687;50.800;6.772;2024-03-23T06:18:11;9.57;;;4.07;;
11016;SDS011;54687;50.800;6.772;2024-03-23T06:20:37;11.35;;;4.32;;
11016;SDS011;54687;50.800;6.772;2024-03-23T06:23:05;9.38;;;3.85;;
11016;SDS011;54687;50.800;6.772;2024-03-23T06:25:31;10.32;;;4.35;;
11016;SDS011;54687;50.800;6.772;2024-03-23T06:27:58;10.15;;;3.72;;
11016;SDS011;54687;50.800;6.772;2024-03-23T06:30:23;11.63;;;4.35;;
11016;SDS011;54687;50.800;6.772;2024-03-23T06:32:51;13.60;;;4.13;;
11016;SDS011;54687;50.800;6.772;2024-03-23T06:35:18;8.05;;;3.80;;
11016;SDS011;54687;50.800;6.772;2024-03-23T06:37:45;8.90;;;4.00;;
11016;SDS011;54687;50.800;6.772;2024-03-23T06:40:12;12.93;;;3.92;;
11016;SDS011;54687;50.800;6.772;2024-03-23T06:42:38;13.38;;;4.00;;
11016;SDS011;54687;50.800;6.772;2024-03-23T06:45:05;11.02;;;4.50;;
11016;SDS011;54687;50.800;6.772;2024-03-23T06:47:32;11.60;;;4.28;;
11016;SDS011;54687;50.800;6.772;2024-03-23T06:49:58;9.45;;;4.50;;
11016;SDS011;54687;50.800;6.772;2024-03-23T06:52:26;10.18;;;4.95;;
11016;SDS011;54687;50.800;6.772;2024-03-23T06:54:52;11.30;;;4.75;;
11016;SDS011;54687;50.800;6.772;2024-03-23T06:57:20;14.82;;;4.85;;
11016;SDS011;54687;50.800;6.772;2024-03-23T06:59:46;8.90;;;4.40;;
11016;SDS011;54687;50.800;6.772;2024-03-23T07:02:13;11.25;;;4.70;;
11016;SDS011;54687;50.800;6.772;2024-03-23T07:04:39;13.65;;;5.18;;
11016;SDS011;54687;50.800;6.772;2024-03-23T07:07:06;11.07;;;5.93;;
11016;SDS011;54687;50.800;6.772;2024-03-23T07:09:32;14.35;;;6.35;;
11016;SDS011;54687;50.800;6.772;2024-03-23T07:11:58;14.75;;;6.07;;
11016;SDS011;54687;50.800;6.772;2024-03-23T07:14:25;16.13;;;7.10;;
11016;SDS011;54687;50.800;6.772;2024-03-23T07:16:52;14.02;;;7.10;;
11016;SDS011;54687;50.800;6.772;2024-03-23T07:19:18;14.05;;;6.43;;
11016;SDS011;54687;50.800;6.772;2024-03-23T07:21:45;12.43;;;7.15;;
11016;SDS011;54687;50.800;6.772;2024-03-23T07:24:11;13.88;;;7.03;;
11016;SDS011;54687;50.800;6.772;2024-03-23T07:26:38;17.50;;;8.73;;
11016;SDS011;54687;50.800;6.772;2024-03-23T07:29:04;16.52;;;8.80;;
11016;SDS011;54687;50.800;6.772;2024-03-23T07:31:33;16.52;;;8.77;;
11016;SDS011;54687;50.800;6.772;2024-03-23T07:33:58;16.88;;;9.07;;
11016;SDS011;54687;50.800;6.772;2024-03-23T07:36:25;23.17;;;8.73;;
11016;SDS011;54687;50.800;6.772;2024-03-23T07:38:51;14.77;;;8.90;;
11016;SDS011;54687;50.800;6.772;2024-03-23T07:41:21;13.15;;;8.50;;
11016;SDS011;54687;50.800;6.772;2024-03-23T07:43:47;15.82;;;9.40;;
11016;SDS011;54687;50.800;6.772;2024-03-23T07:46:14;14.25;;;9.95;;
11016;SDS011;54687;50.800;6.772;2024-03-23T07:48:42;10.65;;;5.07;;
11016;SDS011;54687;50.800;6.772;2024-03-23T07:51:10;5.22;;;3.10;;
11016;SDS011;54687;50.800;6.772;2024-03-23T07:53:43;5.75;;;2.70;;
11016;SDS011;54687;50.800;6.772;2024-03-23T07:56:11;7.72;;;2.58;;
11016;SDS011;54687;50.800;6.772;2024-03-23T07:58:37;4.38;;;2.15;;
11016;SDS011;54687;50.800;6.772;2024-03-23T08:01:05;6.70;;;2.33;;
11016;SDS011;54687;50.800;6.772;2024-03-23T08:03:33;7.53;;;2.58;;
11016;SDS011;54687;50.800;6.772;2024-03-23T08:06:07;6.38;;;2.70;;
11016;SDS011;54687;50.800;6.772;2024-03-23T08:08:34;7.30;;;2.65;;
11016;SDS011;54687;50.800;6.772;2024-03-23T08:11:00;5.10;;;2.40;;
11016;SDS011;54687;50.800;6.772;2024-03-23T08:13:26;7.72;;;2.85;;
11016;SDS011;54687;50.800;6.772;2024-03-23T08:15:56;7.78;;;3.40;;
11016;SDS011;54687;50.800;6.772;2024-03-23T08:18:22;6.07;;;3.30;;
11016;SDS011;54687;50.800;6.772;2024-03-23T08:20:54;6.55;;;3.53;;
11016;SDS011;54687;50.800;6.772;2024-03-23T08:23:22;6.97;;;3.72;;
11016;SDS011;54687;50.800;6.772;2024-03-23T08:25:49;7.55;;;4.00;;
11016;SDS011;54687;50.800;6.772;2024-03-23T08:28:15;11.18;;;5.55;;
11016;SDS011;54687;50.800;6.772;2024-03-23T08:30:42;8.20;;;5.70;;
11016;SDS011;54687;50.800;6.772;2024-03-23T08:33:07;10.77;;;6.60;;
11016;SDS011;54687;50.800;6.772;2024-03-23T08:35:34;12.80;;;7.32;;
11016;SDS011;54687;50.800;6.772;2024-03-23T08:38:00;11.77;;;7.78;;
11016;SDS011;54687;50.800;6.772;2024-03-23T08:40:28;12.85;;;8.57;;
11016;SDS011;54687;50.800;6.772;2024-03-23T08:42:54;14.95;;;8.35;;
11016;SDS011;54687;50.800;6.772;2024-03-23T08:45:20;11.02;;;7.90;;
11016;SDS011;54687;50.800;6.772;2024-03-23T08:47:46;13.88;;;8.02;;
11016;SDS011;54687;50.800;6.772;2024-03-23T08:50:13;15.30;;;7.55;;
11016;SDS011;54687;50.800;6.772;2024-03-23T08:52:38;11.73;;;7.00;;
11016;SDS011;54687;50.800;6.772;2024-03-23T08:55:05;17.15;;;7.97;;
11016;SDS011;54687;50.800;6.772;2024-03-23T08:57:33;13.38;;;6.70;;
11016;SDS011;54687;50.800;6.772;2024-03-23T08:59:59;15.23;;;6.30;;
11016;SDS011;54687;50.800;6.772;2024-03-23T09:02:25;15.82;;;6.78;;
11016;SDS011;54687;50.800;6.772;2024-03-23T09:04:52;17.02;;;6.20;;
11016;SDS011;54687;50.800;6.772;2024-03-23T09:07:17;12.65;;;6.03;;
11016;SDS011;54687;50.800;6.772;2024-03-23T09:09:44;19.45;;;6.15;;
11016;SDS011;54687;50.800;6.772;2024-03-23T09:12:09;14.35;;;5.60;;
11016;SDS011;54687;50.800;6.772;2024-03-23T09:14:37;12.90;;;5.45;;
11016;SDS011;54687;50.800;6.772;2024-03-23T09:17:03;15.13;;;4.90;;
11016;SDS011;54687;50.800;6.772;2024-03-23T09:19:30;9.98;;;4.65;;
11016;SDS011;54687;50.800;6.772;2024-03-23T09:21:56;12.85;;;4.90;;
11016;SDS011;54687;50.800;6.772;2024-03-23T09:24:22;10.95;;;4.70;;
11016;SDS011;54687;50.800;6.772;2024-03-23T09:26:48;11.73;;;4.85;;
11016;SDS011;54687;50.800;6.772;2024-03-23T09:29:15;10.70;;;4.22;;
11016;SDS011;54687;50.800;6.772;2024-03-23T09:31:42;9.23;;;3.85;;
11016;SDS011;54687;50.800;6.772;2024-03-23T09:34:08;9.25;;;3.90;;
11016;SDS011;54687;50.800;6.772;2024-03-23T09:36:34;12.98;;;4.40;;
11016;SDS011;54687;50.800;6.772;2024-03-23T09:39:01;9.75;;;3.83;;
11016;SDS011;54687;50.800;6.772;2024-03-23T09:41:27;13.10;;;4.22;;
11016;SDS011;54687;50.800;6.772;2024-03-23T09:43:54;9.90;;;4.20;;
11016;SDS011;54687;50.800;6.772;2024-03-23T09:46:20;10.05;;;3.80;;
11016;SDS011;54687;50.800;6.772;2024-03-23T09:48:48;10.50;;;4.35;;
11016;SDS011;54687;50.800;6.772;2024-03-23T09:51:14;8.25;;;3.80;;
11016;SDS011;54687;50.800;6.772;2024-03-23T09:53:40;9.57;;;3.60;;
11016;SDS011;54687;50.800;6.772;2024-03-23T09:56:07;8.15;;;3.30;;
11016;SDS011;54687;50.800;6.772;2024-03-23T09:58:34;9.68;;;3.42;;
11016;SDS011;54687;50.800;6.772;2024-03-23T10:01:00;6.22;;;3.38;;
11016;SDS011;54687;50.800;6.772;2024-03-23T10:03:27;7.05;;;3.60;;
11016;SDS011;54687;50.800;6.772;2024-03-23T10:06:04;8.65;;;3.80;;
11016;SDS011;54687;50.800;6.772;2024-03-23T10:08:31;11.23;;;4.13;;
11016;SDS011;54687;50.800;6.772;2024-03-23T10:10:58;10.13;;;3.72;;
11016;SDS011;54687;50.800;6.772;2024-03-23T10:13:41;6.55;;;3.33;;
11016;SDS011;54687;50.800;6.772;2024-03-23T10:16:07;7.07;;;2.72;;
11016;SDS011;54687;50.800;6.772;2024-03-23T10:18:36;4.82;;;2.05;;
11016;SDS011;54687;50.800;6.772;2024-03-23T10:21:10;4.68;;;2.30;;
11016;SDS011;54687;50.800;6.772;2024-03-23T10:23:37;6.22;;;2.40;;
11016;SDS011;54687;50.800;6.772;2024-03-23T10:26:12;2.88;;;2.03;;
11016;SDS011;54687;50.800;6.772;2024-03-23T10:28:50;3.92;;;1.65;;
11016;SDS011;54687;50.800;6.772;2024-03-23T10:31:17;3.17;;;2.25;;
11016;SDS011;54687;50.800;6.772;2024-03-23T10:33:44;6.22;;;2.13;;
11016;SDS011;54687;50.800;6.772;2024-03-23T10:36:11;5.00;;;2.22;;
11016;SDS011;54687;50.800;6.772;2024-03-23T10:38:39;5.53;;;2.05;;
11016;SDS011;54687;50.800;6.772;2024-03-23T10:41:05;6.00;;;2.40;;
11016;SDS011;54687;50.800;6.772;2024-03-23T10:43:33;5.22;;;2.60;;
11016;SDS011;54687;50.800;6.772;2024-03-23T10:46:00;13.13;;;3.92;;
11016;SDS011;54687;50.800;6.772;2024-03-23T10:48:26;7.00;;;2.75;;
11016;SDS011;54687;50.800;6.772;2024-03-23T10:50:52;5.32;;;2.67;;
11016;SDS011;54687;50.800;6.772;2024-03-23T10:53:20;4.35;;;2.28;;
11016;SDS011;54687;50.800;6.772;2024-03-23T10:55:50;5.38;;;2.42;;
11016;SDS011;54687;50.800;6.772;2024-03-23T10:58:18;8.80;;;2.72;;
11016;SDS011;54687;50.800;6.772;2024-03-23T11:00:48;8.02;;;3.40;;
11016;SDS011;54687;50.800;6.772;2024-03-23T11:03:33;9.70;;;3.28;;
11016;SDS011;54687;50.800;6.772;2024-03-23T11:06:00;9.65;;;4.22;;
11016;SDS011;54687;50.800;6.772;2024-03-23T11:08:36;8.35;;;4.15;;
11016;SDS011;54687;50.800;6.772;2024-03-23T11:11:11;12.05;;;4.30;;
11016;SDS011;54687;50.800;6.772;2024-03-23T11:13:39;6.43;;;3.92;;
11016;SDS011;54687;50.800;6.772;2024-03-23T11:16:12;7.65;;;3.78;;
11016;SDS011;54687;50.800;6.772;2024-03-23T11:18:40;7.47;;;4.10;;
11016;SDS011;54687;50.800;6.772;2024-03-23T11:21:07;8.55;;;3.90;;
11016;SDS011;54687;50.800;6.772;2024-03-23T11:23:33;7.10;;;4.00;;
11016;SDS011;54687;50.800;6.772;2024-03-23T11:26:01;10.10;;;4.35;;
11016;SDS011;54687;50.800;6.772;2024-03-23T11:28:29;9.45;;;4.05;;
11016;SDS011;54687;50.800;6.772;2024-03-23T11:30:55;8.23;;;4.30;;
11016;SDS011;54687;50.800;6.772;2024-03-23T11:33:22;8.32;;;4.03;;
11016;SDS011;54687;50.800;6.772;2024-03-23T11:35:48;7.18;;;3.55;;
11016;SDS011;54687;50.800;6.772;2024-03-23T11:38:17;13.52;;;3.75;;
11016;SDS011;54687;50.800;6.772;2024-03-23T11:40:44;11.82;;;3.83;;
11016;SDS011;54687;50.800;6.772;2024-03-23T11:43:14;9.88;;;3.53;;
11016;SDS011;54687;50.800;6.772;2024-03-23T11:45:43;7.72;;;3.40;;
11016;SDS011;54687;50.800;6.772;2024-03-23T11:48:11;9.18;;;3.78;;
11016;SDS011;54687;50.800;6.772;2024-03-23T11:50:38;7.53;;;4.40;;
11016;SDS011;54687;50.800;6.772;2024-03-23T11:53:07;7.38;;;4.32;;
11016;SDS011;54687;50.800;6.772;2024-03-23T11:55:41;7.80;;;3.35;;
11016;SDS011;54687;50.800;6.772;2024-03-23T11:58:09;8.20;;;3.03;;
11016;SDS011;54687;50.800;6.772;2024-03-23T12:00:36;5.90;;;3.17;;
11016;SDS011;54687;50.800;6.772;2024-03-23T12:03:03;8.88;;;3.10;;
11016;SDS011;54687;50.800;6.772;2024-03-23T12:05:30;6.28;;;2.90;;
11016;SDS011;54687;50.800;6.772;2024-03-23T12:10:43;4.70;;;2.90;;
11016;SDS011;54687;50.800;6.772;2024-03-23T12:13:10;5.60;;;2.85;;
11016;SDS011;54687;50.800;6.772;2024-03-23T12:15:37;6.80;;;3.10;;
11016;SDS011;54687;50.800;6.772;2024-03-23T12:18:07;8.38;;;3.15;;
11016;SDS011;54687;50.800;6.772;2024-03-23T12:20:33;6.75;;;3.13;;
11016;SDS011;54687;50.800;6.772;2024-03-23T12:23:09;5.80;;;3.03;;
11016;SDS011;54687;50.800;6.772;2024-03-23T12:25:36;6.28;;;3.08;;
11016;SDS011;54687;50.800;6.772;2024-03-23T12:28:04;5.25;;;2.50;;
11016;SDS011;54687;50.800;6.772;2024-03-23T12:30:31;5.50;;;2.10;;
11016;SDS011;54687;50.800;6.772;2024-03-23T12:33:02;6.97;;;2.20;;
11016;SDS011;54687;50.800;6.772;2024-03-23T12:35:28;4.13;;;2.25;;
11016;SDS011;54687;50.800;6.772;2024-03-23T12:37:55;6.28;;;2.15;;
11016;SDS011;54687;50.800;6.772;2024-03-23T12:40:21;3.00;;;2.25;;
11016;SDS011;54687;50.800;6.772;2024-03-23T12:42:47;3.78;;;1.92;;
11016;SDS011;54687;50.800;6.772;2024-03-23T12:45:13;3.38;;;1.92;;
11016;SDS011;54687;50.800;6.772;2024-03-23T12:47:40;2.55;;;1.60;;
11016;SDS011;54687;50.800;6.772;2024-03-23T12:50:08;2.53;;;1.60;;
11016;SDS011;54687;50.800;6.772;2024-03-23T12:52:36;3.45;;;2.00;;
11016;SDS011;54687;50.800;6.772;2024-03-23T12:55:02;3.80;;;2.47;;
11016;SDS011;54687;50.800;6.772;2024-03-23T12:57:30;4.93;;;2.30;;
11016;SDS011;54687;50.800;6.772;2024-03-23T12:59:57;3.38;;;2.00;;
11016;SDS011;54687;50.800;6.772;2024-03-23T13:02:23;2.95;;;1.67;;
11016;SDS011;54687;50.800;6.772;2024-03-23T13:04:52;3.25;;;1.75;;
11016;SDS011;54687;50.800;6.772;2024-03-23T13:07:21;3.28;;;1.63;;
11016;SDS011;54687;50.800;6.772;2024-03-23T13:09:50;2.92;;;1.67;;
11016;SDS011;54687;50.800;6.772;2024-03-23T13:12:17;1.98;;;1.42;;
11016;SDS011;54687;50.800;6.772;2024-03-23T13:14:43;2.33;;;1.65;;
11016;SDS011;54687;50.800;6.772;2024-03-23T13:17:10;3.75;;;2.10;;
11016;SDS011;54687;50.800;6.772;2024-03-23T13:19:36;4.53;;;2.22;;
11016;SDS011;54687;50.800;6.772;2024-03-23T13:22:03;4.03;;;2.78;;
11016;SDS011;54687;50.800;6.772;2024-03-23T13:24:30;5.85;;;3.20;;
11016;SDS011;54687;50.800;6.772;2024-03-23T13:26:57;6.22;;;2.80;;
11016;SDS011;54687;50.800;6.772;2024-03-23T13:29:23;3.67;;;2.50;;
11016;SDS011;54687;50.800;6.772;2024-03-23T13:31:50;5.70;;;2.63;;
11016;SDS011;54687;50.800;6.772;2024-03-23T13:34:17;5.68;;;3.30;;
11016;SDS011;54687;50.800;6.772;2024-03-23T13:36:45;5.80;;;2.90;;
11016;SDS011;54687;50.800;6.772;2024-03-23T13:39:12;8.25;;;3.45;;
11016;SDS011;54687;50.800;6.772;2024-03-23T13:41:42;5.70;;;3.00;;
11016;SDS011;54687;50.800;6.772;2024-03-23T13:44:08;8.15;;;3.40;;
11016;SDS011;54687;50.800;6.772;2024-03-23T13:46:37;4.55;;;2.70;;
11016;SDS011;54687;50.800;6.772;2024-03-23T13:49:03;5.32;;;3.25;;
11016;SDS011;54687;50.800;6.772;2024-03-23T13:51:30;4.13;;;3.28;;
11016;SDS011;54687;50.800;6.772;2024-03-23T13:53:56;7.43;;;2.97;;
11016;SDS011;54687;50.800;6.772;2024-03-23T13:56:26;5.38;;;3.60;;
11016;SDS011;54687;50.800;6.772;2024-03-23T13:58:54;7.22;;;3.10;;
11016;SDS011;54687;50.800;6.772;2024-03-23T14:01:21;6.05;;;2.13;;
11016;SDS011;54687;50.800;6.772;2024-03-23T14:03:48;3.47;;;1.85;;
11016;SDS011;54687;50.800;6.772;2024-03-23T14:06:14;2.95;;;1.98;;
11016;SDS011;54687;50.800;6.772;2024-03-23T14:08:40;4.68;;;2.35;;
11016;SDS011;54687;50.800;6.772;2024-03-23T14:11:08;4.93;;;2.83;;
11016;SDS011;54687;50.800;6.772;2024-03-23T14:13:34;4.32;;;2.90;;
11016;SDS011;54687;50.800;6.772;2024-03-23T14:16:03;4.78;;;2.78;;
11016;SDS011;54687;50.800;6.772;2024-03-23T14:18:29;4.90;;;2.92;;
11016;SDS011;54687;50.800;6.772;2024-03-23T14:20:56;4.45;;;2.80;;
11016;SDS011;54687;50.800;6.772;2024-03-23T14:23:23;3.95;;;2.45;;
11016;SDS011;54687;50.800;6.772;2024-03-23T14:25:52;6.32;;;2.42;;
11016;SDS011;54687;50.800;6.772;2024-03-23T14:28:18;4.95;;;3.03;;
11016;SDS011;54687;50.800;6.772;2024-03-23T14:30:44;4.68;;;2.78;;
11016;SDS011;54687;50.800;6.772;2024-03-23T14:33:11;3.58;;;2.13;;
11016;SDS011;54687;50.800;6.772;2024-03-23T14:35:41;3.92;;;2.33;;
11016;SDS011;54687;50.800;6.772;2024-03-23T14:38:06;6.15;;;4.15;;
11016;SDS011;54687;50.800;6.772;2024-03-23T14:40:35;5.38;;;3.17;;
11016;SDS011;54687;50.800;6.772;2024-03-23T14:43:01;3.63;;;2.55;;
11016;SDS011;54687;50.800;6.772;2024-03-23T14:45:28;4.82;;;2.65;;
11016;SDS011;54687;50.800;6.772;2024-03-23T14:47:54;5.53;;;2.88;;
11016;SDS011;54687;50.800;6.772;2024-03-23T14:50:24;6.97;;;2.90;;
11016;SDS011;54687;50.800;6.772;2024-03-23T14:52:50;4.82;;;2.42;;
11016;SDS011;54687;50.800;6.772;2024-03-23T14:55:18;5.00;;;2.80;;
11016;SDS011;54687;50.800;6.772;2024-03-23T14:57:44;3.97;;;2.60;;
11016;SDS011;54687;50.800;6.772;2024-03-23T15:00:11;3.65;;;2.40;;
11016;SDS011;54687;50.800;6.772;2024-03-23T15:02:38;2.35;;;2.15;;
11016;SDS011;54687;50.800;6.772;2024-03-23T15:05:05;2.38;;;2.03;;
11016;SDS011;54687;50.800;6.772;2024-03-23T15:07:36;3.05;;;1.75;;
11016;SDS011;54687;50.800;6.772;2024-03-23T15:10:04;3.47;;;2.00;;
11016;SDS011;54687;50.800;6.772;2024-03-23T15:12:30;3.10;;;2.15;;
11016;SDS011;54687;50.800;6.772;2024-03-23T15:14:58;3.20;;;2.30;;
11016;SDS011;54687;50.800;6.772;2024-03-23T15:17:25;4.00;;;1.95;;
11016;SDS011;54687;50.800;6.772;2024-03-23T15:19:52;3.20;;;2.35;;
11016;SDS011;54687;50.800;6.772;2024-03-23T15:22:18;2.22;;;1.90;;
11016;SDS011;54687;50.800;6.772;2024-03-23T15:24:47;3.03;;;1.88;;
11016;SDS011;54687;50.800;6.772;2024-03-23T15:27:13;2.88;;;1.95;;
11016;SDS011;54687;50.800;6.772;2024-03-23T15:29:39;6.28;;;2.50;;
11016;SDS011;54687;50.800;6.772;2024-03-23T15:32:07;2.20;;;2.00;;
11016;SDS011;54687;50.800;6.772;2024-03-23T15:34:39;3.97;;;2.28;;
11016;SDS011;54687;50.800;6.772;2024-03-23T15:37:05;2.85;;;2.47;;